Portada
METAR-TAF:

METAR-TAF

Aeropuertos :

Termez, Uzbekistán

latitud: 37-14N, longitud: 067-16E, altitud: 302 m

Observación

El informe se hizo hace 18 minutos, a las 14:30 UTC
Viento 6 kt del este
Temperatura 5°C
Humedad 45%
Presión 1028 hPa
Visibilidad 10 km o más
sin nubes por debajo de 1500 m y sin presencia de cumulonimbus.

METAR: UTST 271430Z 08006KT CAVOK 05/M06 Q1028 R88/CLRD70 NOSIG

Hora: 19:48 (14:48 UTC)

Pronóstico

El informe se hizo hace 3 horas y 48 minutos, a las 11:00 UTC
Pronóstico válido del 27 a las 12 UTC al 28 a las 12 UTC
Viento 10 kt del este con ráfagas de 20 kt
Visibilidad: 6000 m
Temporalmente
del 27 a las 15 UTC al 28 a las 02 UTC
Viento 12 kt del norte-noreste con ráfagas de 22 kt
Visibilidad: 2400 m
Nubes dispersas a una altura de 5000 ft, Cumulonimbus.
Cielo nuboso a una altura de 10000 ft
neblina

TAF: UTST 271100Z 2712/2812 09010G20KT 6000 NSC TEMPO 2715/2802 03012G22KT 2400 BR SCT050CB BKN100

Observaciones y pronósticos meteorológicos de más de 4000 aeropuertos (mensajes METAR y TAF).

Los puntos amarillos y rojos representan las estaciones disponibles.

Ponga el ratón en el punto deseado para ver el nombre de la estación.

Haga clic para ver las observaciones y los pronósticos meteorológicos.

Para cambiar el mapa : haga clic en los botones verdes con una cruz de color negro para hacer un zoom, en el botón verde con un guión para alejar o en las flechas verdes para mapas adyacentes.


METAR-TAF: